createdAt,value
2019-04-03T00:00:16.791Z,21.00
2019-04-03T00:01:21.067Z,19.50
2019-04-03T00:02:27.525Z,18.75
2019-04-03T00:03:31.087Z,19.25
2019-04-03T00:04:38.213Z,17.75
2019-04-03T00:05:41.166Z,19.75
2019-04-03T00:06:46.867Z,19.50
2019-04-03T00:07:49.885Z,23.00
2019-04-03T00:08:53.253Z,25.75
2019-04-03T00:09:56.443Z,19.75
2019-04-03T00:11:08.648Z,17.25
2019-04-03T00:12:10.963Z,15.75
2019-04-03T00:13:14.659Z,18.00
2019-04-03T00:14:17.813Z,19.50
2019-04-03T00:15:21.370Z,23.75
2019-04-03T00:16:24.607Z,21.25
2019-04-03T00:17:27.601Z,21.25
2019-04-03T00:18:30.626Z,23.25
2019-04-03T00:19:33.783Z,25.75
2019-04-03T00:20:36.889Z,23.50
2019-04-03T00:21:40.160Z,19.75
2019-04-03T00:22:45.920Z,24.00
2019-04-03T00:23:48.294Z,24.00
2019-04-03T00:24:52.597Z,22.50
2019-04-03T00:25:55.853Z,26.50
2019-04-03T00:26:58.883Z,25.25
2019-04-03T00:28:03.621Z,24.25
2019-04-03T00:29:13.938Z,23.00
2019-04-03T00:30:17.200Z,20.25
2019-04-03T00:31:21.600Z,28.25
2019-04-03T00:32:25.362Z,29.25
2019-04-03T00:33:28.357Z,20.50
2019-04-03T00:34:34.337Z,20.50
2019-04-03T00:35:37.996Z,27.25
2019-04-03T00:36:41.081Z,22.75
2019-04-03T00:37:44.023Z,26.75
2019-04-03T00:38:46.965Z,26.00
2019-04-03T00:39:49.998Z,21.25
2019-04-03T00:40:54.316Z,21.50
2019-04-03T00:41:57.898Z,20.00
2019-04-03T00:43:00.955Z,22.75
2019-04-03T00:44:04.142Z,20.00
2019-04-03T00:45:07.741Z,27.75
2019-04-03T00:46:10.855Z,22.50
2019-04-03T00:47:14.173Z,25.75
2019-04-03T00:48:17.223Z,21.50
2019-04-03T00:49:20.274Z,25.00
2019-04-03T00:50:23.439Z,23.00
2019-04-03T00:51:28.060Z,25.00
2019-04-03T00:52:31.306Z,20.75
2019-04-03T00:53:34.602Z,22.00
2019-04-03T00:54:37.621Z,20.75
2019-04-03T00:55:41.004Z,21.75
2019-04-03T00:56:43.821Z,18.50
2019-04-03T00:57:47.245Z,22.50
2019-04-03T00:58:50.565Z,24.50
2019-04-03T00:59:54.683Z,27.25
2019-04-03T01:00:58.469Z,25.75
2019-04-03T01:02:01.314Z,22.25
2019-04-03T01:03:04.214Z,24.25
2019-04-03T01:04:07.061Z,23.25
2019-04-03T01:05:09.902Z,24.00
2019-04-03T01:06:15.768Z,21.50
2019-04-03T01:07:18.766Z,33.25
2019-04-03T01:08:22.053Z,23.00
2019-04-03T01:09:24.952Z,20.50
2019-04-03T01:10:29.567Z,26.00
2019-04-03T01:11:32.315Z,30.00
2019-04-03T01:12:35.164Z,23.50
2019-04-03T01:13:38.142Z,22.25
2019-04-03T01:14:45.887Z,21.00
2019-04-03T01:15:49.451Z,25.25
2019-04-03T01:16:52.689Z,22.75
2019-04-03T01:17:57.412Z,20.50
2019-04-03T01:19:00.724Z,21.50
2019-04-03T01:20:06.054Z,20.50
2019-04-03T01:21:08.452Z,24.75
2019-04-03T01:22:11.314Z,26.75
2019-04-03T01:23:14.155Z,26.00
2019-04-03T01:24:17.363Z,19.75
2019-04-03T01:25:20.177Z,27.00
2019-04-03T01:26:23.002Z,22.25
2019-04-03T01:27:25.812Z,24.50
2019-04-03T01:28:29.087Z,21.75
2019-04-03T01:29:31.992Z,24.75
2019-04-03T01:30:35.505Z,25.25
2019-04-03T01:31:38.775Z,20.00
2019-04-03T01:32:41.994Z,27.00
2019-04-03T01:33:46.882Z,20.75
2019-04-03T01:34:52.132Z,27.00
2019-04-03T01:35:55.044Z,20.50
2019-04-03T01:36:58.253Z,24.00
2019-04-03T01:38:01.065Z,23.50
2019-04-03T01:39:04.336Z,23.00
2019-04-03T01:40:07.161Z,18.50
2019-04-03T01:41:10.020Z,20.75
2019-04-03T01:42:12.911Z,20.25
2019-04-03T01:43:16.045Z,23.25
2019-04-03T01:44:18.964Z,20.50
2019-04-03T01:45:21.815Z,28.00
2019-04-03T01:46:27.142Z,21.25
2019-04-03T01:47:29.181Z,23.00
2019-04-03T01:48:32.058Z,23.25
2019-04-03T01:49:35.243Z,24.50
2019-04-03T01:50:38.085Z,26.25
2019-04-03T01:51:40.920Z,22.25
2019-04-03T01:52:43.808Z,23.00
2019-04-03T01:53:46.644Z,25.00
2019-04-03T01:54:57.181Z,23.50
2019-04-03T01:56:01.262Z,23.75
2019-04-03T01:57:06.224Z,24.00
2019-04-03T01:58:08.726Z,18.50
2019-04-03T01:59:11.547Z,26.75
2019-04-03T02:00:14.385Z,23.00
2019-04-03T02:01:17.698Z,23.50
2019-04-03T02:02:20.621Z,21.25
2019-04-03T02:03:24.026Z,23.00
2019-04-03T02:04:27.285Z,19.50
2019-04-03T02:05:32.960Z,19.50
2019-04-03T02:06:35.798Z,20.25
2019-04-03T02:07:39.317Z,26.00
2019-04-03T02:08:44.269Z,25.25
2019-04-03T02:09:47.383Z,24.50
2019-04-03T02:10:50.208Z,23.00
2019-04-03T02:11:53.091Z,22.25
2019-04-03T02:12:56.054Z,21.00
2019-04-03T02:13:59.239Z,24.75
2019-04-03T02:15:02.105Z,21.75
2019-04-03T02:16:06.180Z,23.25
2019-04-03T02:17:12.957Z,19.75
2019-04-03T02:18:15.898Z,21.25
2019-04-03T02:19:18.732Z,23.00
2019-04-03T02:20:21.857Z,22.50
2019-04-03T02:21:27.277Z,23.50
2019-04-03T02:22:30.082Z,18.50
2019-04-03T02:23:33.046Z,19.75
2019-04-03T02:24:35.914Z,19.50
2019-04-03T02:25:38.734Z,22.00
2019-04-03T02:26:43.535Z,23.00
2019-04-03T02:27:46.498Z,21.75
2019-04-03T02:28:50.346Z,22.50
2019-04-03T02:29:53.429Z,23.75
2019-04-03T02:30:56.847Z,21.75
2019-04-03T02:32:00.603Z,23.00
2019-04-03T02:33:03.917Z,21.00
2019-04-03T02:34:06.876Z,25.00
2019-04-03T02:35:09.747Z,23.50
2019-04-03T02:36:13.170Z,28.50
2019-04-03T02:37:16.987Z,23.75
2019-04-03T02:38:22.684Z,24.50
2019-04-03T02:39:28.695Z,21.75
2019-04-03T02:40:33.069Z,22.00
2019-04-03T02:41:37.397Z,24.50
2019-04-03T02:42:41.915Z,18.00
2019-04-03T02:43:46.311Z,27.00
2019-04-03T02:44:51.245Z,26.25
2019-04-03T02:45:56.322Z,23.00
2019-04-03T02:47:01.064Z,25.25
2019-04-03T02:48:05.659Z,21.50
2019-04-03T02:49:10.191Z,23.25
2019-04-03T02:50:14.400Z,24.75
2019-04-03T02:51:19.784Z,26.50
2019-04-03T02:52:24.145Z,27.00
2019-04-03T02:53:27.536Z,24.75
2019-04-03T02:54:34.666Z,22.00
2019-04-03T02:55:39.040Z,27.25
2019-04-03T02:56:40.830Z,27.00
2019-04-03T02:57:48.445Z,32.00
2019-04-03T02:58:53.942Z,24.00
2019-04-03T02:59:58.785Z,28.50
2019-04-03T03:01:06.996Z,25.25
2019-04-03T03:02:06.741Z,29.50
2019-04-03T03:03:09.552Z,29.50
2019-04-03T03:04:12.706Z,26.00
2019-04-03T03:05:15.590Z,21.75
2019-04-03T03:06:18.524Z,25.00
2019-04-03T03:07:21.355Z,23.00
2019-04-03T03:08:24.523Z,25.75
2019-04-03T03:09:27.792Z,28.00
2019-04-03T03:10:31.846Z,28.75
2019-04-03T03:11:35.086Z,23.50
2019-04-03T03:12:39.560Z,28.75
2019-04-03T03:13:42.899Z,25.25
2019-04-03T03:14:45.912Z,27.25
2019-04-03T03:15:48.870Z,29.25
2019-04-03T03:16:52.499Z,23.00
2019-04-03T03:17:56.353Z,29.75
2019-04-03T03:19:00.859Z,22.25
2019-04-03T03:20:06.839Z,25.75
2019-04-03T03:21:11.789Z,25.75
2019-04-03T03:22:16.971Z,27.00
2019-04-03T03:23:23.395Z,24.75
2019-04-03T03:24:29.346Z,27.75
2019-04-03T03:25:33.569Z,21.00
2019-04-03T03:26:38.768Z,23.00
2019-04-03T03:27:42.720Z,25.00
2019-04-03T03:28:47.272Z,26.75
2019-04-03T03:29:51.201Z,22.25
2019-04-03T03:31:02.022Z,24.50
2019-04-03T03:32:11.607Z,24.00
2019-04-03T03:33:24.617Z,22.50
2019-04-03T03:34:12.544Z,26.50
2019-04-03T03:35:23.115Z,25.00
2019-04-03T03:36:24.857Z,23.75
2019-04-03T03:37:25.090Z,21.00
2019-04-03T03:38:28.782Z,25.50
2019-04-03T03:39:31.773Z,24.50
2019-04-03T03:40:34.620Z,24.00
2019-04-03T03:41:37.784Z,20.50
2019-04-03T03:42:40.668Z,26.25
2019-04-03T03:43:44.002Z,26.50
2019-04-03T03:44:50.013Z,22.00
2019-04-03T03:45:54.033Z,23.25
2019-04-03T03:46:59.356Z,26.75
2019-04-03T03:48:02.242Z,24.00
2019-04-03T03:49:05.601Z,22.25
2019-04-03T03:50:08.427Z,25.25
2019-04-03T03:51:11.277Z,25.25
2019-04-03T03:52:17.236Z,24.75
2019-04-03T03:53:20.672Z,23.75
2019-04-03T03:54:23.576Z,24.50
2019-04-03T03:55:26.432Z,25.75
2019-04-03T03:56:31.328Z,19.75
2019-04-03T03:57:37.993Z,30.50
2019-04-03T03:58:38.882Z,27.75
2019-04-03T03:59:42.100Z,22.00
2019-04-03T04:00:45.969Z,31.00
2019-04-03T04:01:49.674Z,27.00
2019-04-03T04:02:52.713Z,28.50
2019-04-03T04:03:56.575Z,29.25
2019-04-03T04:04:59.558Z,25.25
2019-04-03T04:06:02.741Z,27.00
2019-04-03T04:07:05.908Z,25.00
2019-04-03T04:08:11.723Z,23.75
2019-04-03T04:09:17.155Z,25.25
2019-04-03T04:10:23.974Z,23.50
2019-04-03T04:11:25.060Z,27.00
2019-04-03T04:12:29.291Z,29.75
2019-04-03T04:13:32.425Z,24.75
2019-04-03T04:14:35.349Z,29.50
2019-04-03T04:15:38.270Z,26.25
2019-04-03T04:16:41.166Z,26.25
2019-04-03T04:17:44.004Z,27.00
2019-04-03T04:18:47.125Z,24.25
2019-04-03T04:19:49.950Z,24.50
2019-04-03T04:20:52.848Z,22.25
2019-04-03T04:21:55.698Z,30.50
2019-04-03T04:22:58.582Z,23.50
2019-04-03T04:24:01.415Z,25.25
2019-04-03T04:25:06.304Z,24.00
2019-04-03T04:26:09.510Z,23.75
2019-04-03T04:27:12.327Z,25.50
2019-04-03T04:28:15.242Z,23.75
2019-04-03T04:29:18.093Z,23.75
2019-04-03T04:30:23.720Z,22.50
2019-04-03T04:31:27.012Z,32.50
2019-04-03T04:32:30.052Z,29.50
2019-04-03T04:33:33.092Z,26.50
2019-04-03T04:34:35.939Z,25.75
2019-04-03T04:35:41.058Z,23.75
2019-04-03T04:36:44.503Z,20.50
2019-04-03T04:37:47.657Z,27.00
2019-04-03T04:38:50.750Z,27.00
2019-04-03T04:39:53.740Z,28.75
2019-04-03T04:40:57.119Z,22.25
2019-04-03T04:42:03.471Z,23.75
2019-04-03T04:43:07.355Z,22.50
2019-04-03T04:44:10.431Z,34.50
2019-04-03T04:45:16.871Z,22.00
2019-04-03T04:46:19.726Z,25.50
2019-04-03T04:47:23.093Z,26.00
2019-04-03T04:48:26.068Z,29.50
2019-04-03T04:49:29.104Z,31.50
2019-04-03T04:50:33.309Z,26.25
2019-04-03T04:51:39.363Z,24.25
2019-04-03T04:52:44.219Z,21.75
2019-04-03T04:53:49.096Z,21.25
2019-04-03T04:54:52.013Z,25.50
2019-04-03T04:55:54.856Z,25.25
2019-04-03T04:57:05.007Z,22.50
2019-04-03T04:58:05.972Z,27.00
2019-04-03T04:59:13.143Z,28.25
2019-04-03T05:00:16.309Z,22.50
2019-04-03T05:01:19.436Z,21.50
2019-04-03T05:02:22.713Z,29.50
2019-04-03T05:03:26.345Z,24.00
2019-04-03T05:04:29.405Z,28.50
2019-04-03T05:05:32.441Z,24.50
2019-04-03T05:06:35.435Z,24.00
2019-04-03T05:07:38.355Z,25.25
2019-04-03T05:08:41.351Z,24.75
2019-04-03T05:09:44.814Z,22.00
2019-04-03T05:10:49.133Z,20.50
2019-04-03T05:11:52.420Z,22.00
2019-04-03T05:12:55.269Z,23.00
2019-04-03T05:13:58.226Z,25.50
2019-04-03T05:15:01.059Z,31.00
2019-04-03T05:16:04.240Z,30.75
2019-04-03T05:17:09.855Z,30.75
2019-04-03T05:18:15.906Z,25.50
2019-04-03T05:19:19.621Z,31.00
2019-04-03T05:20:23.668Z,22.00
2019-04-03T05:21:28.708Z,29.25
2019-04-03T05:22:34.247Z,19.25
2019-04-03T05:23:41.800Z,24.25
2019-04-03T05:24:44.775Z,20.75
2019-04-03T05:25:47.848Z,22.00
2019-04-03T05:26:50.703Z,23.50
2019-04-03T05:28:04.530Z,25.50
2019-04-03T05:29:08.564Z,21.50
2019-04-03T05:43:52.760Z,24.25
2019-04-03T05:44:56.444Z,21.00
2019-04-03T05:45:59.263Z,26.75
2019-04-03T05:47:02.264Z,24.25
2019-04-03T05:48:06.082Z,25.00
2019-04-03T05:49:10.953Z,23.00
2019-04-03T05:50:14.009Z,21.00
2019-04-03T05:51:17.151Z,20.25
2019-04-03T05:52:19.974Z,20.25
2019-04-03T05:53:22.865Z,21.50
2019-04-03T05:54:25.753Z,22.25
2019-04-03T05:55:29.053Z,21.50
2019-04-03T05:56:31.944Z,18.25
2019-04-03T05:57:34.773Z,19.25
2019-04-03T05:58:37.683Z,20.00
2019-04-03T05:59:43.516Z,18.50
2019-04-03T06:00:45.147Z,26.25
2019-04-03T06:01:48.013Z,17.50
2019-04-03T06:02:53.129Z,19.00
2019-04-03T06:03:56.658Z,19.75
2019-04-03T06:04:59.814Z,18.75
2019-04-03T06:06:05.819Z,17.75
2019-04-03T06:07:08.112Z,20.50
2019-04-03T06:08:13.514Z,18.50
2019-04-03T06:09:16.333Z,17.50
2019-04-03T06:10:19.491Z,17.50
2019-04-03T06:11:22.564Z,22.75
2019-04-03T06:12:25.962Z,16.50
2019-04-03T06:13:30.369Z,19.25
2019-04-03T06:14:36.006Z,20.75
2019-04-03T06:15:39.708Z,16.75
2019-04-03T06:16:42.819Z,18.75
2019-04-03T06:17:45.707Z,22.00
2019-04-03T06:18:48.772Z,18.75
2019-04-03T06:19:52.076Z,18.00
2019-04-03T06:20:54.951Z,20.00
2019-04-03T06:21:57.871Z,18.00
2019-04-03T06:23:00.932Z,19.50
2019-04-03T06:24:04.063Z,22.00
2019-04-03T06:25:06.999Z,20.75
2019-04-03T06:26:10.063Z,17.00
2019-04-03T06:27:13.408Z,18.00
2019-04-03T06:28:16.359Z,22.00
2019-04-03T06:29:19.651Z,19.00
2019-04-03T06:30:24.319Z,19.75
2019-04-03T06:31:27.741Z,16.00
2019-04-03T06:32:31.080Z,18.25
2019-04-03T06:33:35.818Z,22.50
2019-04-03T06:34:42.161Z,18.50
2019-04-03T06:35:45.356Z,16.50
2019-04-03T06:36:49.740Z,18.75
2019-04-03T06:37:53.165Z,19.50
2019-04-03T06:38:57.410Z,18.75
2019-04-03T06:40:03.276Z,17.50
2019-04-03T06:41:09.143Z,21.00
2019-04-03T06:42:15.381Z,19.00
2019-04-03T06:43:18.336Z,19.25
2019-04-03T06:44:22.635Z,16.50
2019-04-03T06:45:26.179Z,22.25
2019-04-03T06:46:30.448Z,17.25
2019-04-03T06:47:33.610Z,17.00
2019-04-03T06:48:39.288Z,20.00
2019-04-03T06:49:42.203Z,16.00
2019-04-03T06:50:48.304Z,18.00
2019-04-03T06:51:52.065Z,19.75
2019-04-03T06:52:55.960Z,16.50
2019-04-03T06:53:59.811Z,20.75
2019-04-03T06:55:03.998Z,21.75
2019-04-03T06:56:08.662Z,15.25
2019-04-03T06:57:13.919Z,17.50
2019-04-03T06:58:19.786Z,23.25
2019-04-03T06:59:22.806Z,18.00
2019-04-03T07:00:32.493Z,17.50
2019-04-03T07:01:35.656Z,19.00
2019-04-03T07:02:38.958Z,19.50
2019-04-03T07:03:42.276Z,17.00
2019-04-03T07:04:47.815Z,21.75
2019-04-03T07:05:53.218Z,19.50
2019-04-03T07:06:56.884Z,17.25
2019-04-03T07:08:01.299Z,16.50
2019-04-03T07:50:54.035Z,16.00
2019-04-03T07:51:57.616Z,18.50
2019-04-03T07:53:00.663Z,13.00
2019-04-03T07:54:04.759Z,16.00
2019-04-03T07:55:07.858Z,15.00
2019-04-03T07:56:12.106Z,12.50
2019-04-03T07:57:16.389Z,13.00
2019-04-03T07:58:20.896Z,14.00
2019-04-03T07:59:28.505Z,14.50
2019-04-03T08:00:31.788Z,15.75
2019-04-03T08:01:35.004Z,14.75
2019-04-03T08:02:38.069Z,16.50
2019-04-03T08:03:41.589Z,15.25
2019-04-03T08:04:46.221Z,17.50
2019-04-03T08:05:55.416Z,17.00
2019-04-03T08:06:58.600Z,14.75
2019-04-03T08:08:09.035Z,17.75
2019-04-03T08:09:12.243Z,15.75
2019-04-03T08:10:15.515Z,19.00
2019-04-03T08:11:25.779Z,20.75
2019-04-03T08:12:29.974Z,19.00
2019-04-03T08:13:32.824Z,16.25
2019-04-03T08:14:40.478Z,17.00
2019-04-03T08:15:44.506Z,15.75
2019-04-03T08:16:49.701Z,18.00
2019-04-03T08:17:56.959Z,17.00
2019-04-03T08:19:01.790Z,18.00
2019-04-03T08:20:04.761Z,17.50
2019-04-03T08:21:08.285Z,19.00
2019-04-03T08:22:11.179Z,15.25
2019-04-03T08:23:13.241Z,16.75
2019-04-03T08:24:17.162Z,15.00
2019-04-03T08:25:20.693Z,14.25
2019-04-03T08:26:27.247Z,16.50
2019-04-03T08:27:31.327Z,20.50
2019-04-03T08:28:34.369Z,19.00
2019-04-03T08:29:40.097Z,17.50
2019-04-03T08:30:46.000Z,20.25
2019-04-03T08:31:50.954Z,13.00
2019-04-03T08:32:56.243Z,17.25
2019-04-03T08:34:13.967Z,20.50
2019-04-03T08:35:22.482Z,16.25
2019-04-03T08:36:25.045Z,21.25
2019-04-03T08:37:30.170Z,19.00
2019-04-03T08:38:34.144Z,25.75
2019-04-03T08:39:36.930Z,10.50
2019-04-03T08:40:41.462Z,10.00
2019-04-03T08:41:46.823Z,7.75
2019-04-03T08:42:50.005Z,6.50
2019-04-03T08:43:52.815Z,7.00
2019-04-03T08:44:55.773Z,5.00
2019-04-03T08:45:59.089Z,10.00
2019-04-03T08:47:02.073Z,7.00
2019-04-03T08:48:06.344Z,8.00
2019-04-03T08:49:10.757Z,5.50
2019-04-03T08:50:13.778Z,5.00
2019-04-03T08:51:18.768Z,6.25
2019-04-03T08:52:22.141Z,3.00
2019-04-03T08:53:25.189Z,2.50
2019-04-03T08:54:28.023Z,3.00
2019-04-03T08:55:30.758Z,1.00
2019-04-03T08:56:34.091Z,1.00
2019-04-03T08:57:39.973Z,3.00
2019-04-03T08:58:48.841Z,3.00
2019-04-03T08:59:53.876Z,1.50
2019-04-03T09:00:56.626Z,3.00
2019-04-03T09:01:59.390Z,1.50
2019-04-03T09:03:03.624Z,1.00
2019-04-03T09:04:06.972Z,3.00
2019-04-03T09:05:13.564Z,3.00
2019-04-03T09:06:17.069Z,4.50
2019-04-03T09:07:21.517Z,1.00
2019-04-03T09:08:26.497Z,1.00
2019-04-03T09:09:35.804Z,2.00
2019-04-03T09:10:39.400Z,3.00
2019-04-03T09:11:42.607Z,2.00
2019-04-03T09:12:45.554Z,2.50
2019-04-03T09:13:55.817Z,1.00
2019-04-03T09:15:00.029Z,2.00
2019-04-03T09:16:05.882Z,1.00
2019-04-03T09:17:11.359Z,1.00
2019-04-03T09:18:15.585Z,6.00
2019-04-03T09:19:22.048Z,3.00
2019-04-03T09:20:25.005Z,2.00
2019-04-03T09:21:31.021Z,3.00
2019-04-03T09:22:36.672Z,2.00
2019-04-03T09:23:40.073Z,1.00
2019-04-03T09:24:50.325Z,1.00
2019-04-03T09:25:53.357Z,3.50
2019-04-03T09:26:59.181Z,3.00
2019-04-03T09:28:04.294Z,3.00
2019-04-03T09:29:07.374Z,5.00
2019-04-03T09:30:15.472Z,5.00
2019-04-03T09:31:19.505Z,3.00
2019-04-03T09:32:22.692Z,3.00
2019-04-03T09:33:29.896Z,3.00
2019-04-03T09:34:35.576Z,1.00
2019-04-03T09:35:42.736Z,3.00
2019-04-03T09:36:44.871Z,4.50
2019-04-03T09:37:48.117Z,1.00
2019-04-03T09:38:53.166Z,3.00
2019-04-03T09:40:02.084Z,3.00
2019-04-03T09:41:02.935Z,3.00
2019-04-03T09:42:06.085Z,3.00
2019-04-03T09:43:13.677Z,3.00
2019-04-03T09:44:19.512Z,4.00
2019-04-03T09:45:22.583Z,5.00
2019-04-03T09:46:25.747Z,3.00
2019-04-03T09:47:35.816Z,1.50
2019-04-03T09:48:39.797Z,3.00
2019-04-03T09:49:44.176Z,3.00
2019-04-03T09:50:53.177Z,3.00
2019-04-03T09:51:57.571Z,3.00
2019-04-03T09:53:02.712Z,3.00
2019-04-03T09:54:05.217Z,4.50
2019-04-03T09:55:12.111Z,4.50
2019-04-03T09:56:15.406Z,4.00
2019-04-03T09:57:22.106Z,3.00
2019-04-03T09:58:25.293Z,3.00
2019-04-03T09:59:29.213Z,2.00
2019-04-03T10:00:31.967Z,3.00
2019-04-03T10:01:34.689Z,4.50
2019-04-03T10:02:37.813Z,3.00
2019-04-03T10:03:40.611Z,3.50
2019-04-03T10:04:43.457Z,5.00
2019-04-03T10:05:49.575Z,5.00
2019-04-03T10:06:52.875Z,3.00
2019-04-03T10:07:55.684Z,1.00
2019-04-03T10:08:58.707Z,4.00
2019-04-03T10:10:01.901Z,3.00
2019-04-03T10:11:08.565Z,3.00
2019-04-03T10:12:11.751Z,3.00
2019-04-03T10:13:14.622Z,3.00
2019-04-03T10:14:20.630Z,1.00
2019-04-03T10:15:24.952Z,1.00
2019-04-03T10:16:30.149Z,1.00
2019-04-03T10:17:32.920Z,3.00
2019-04-03T10:18:36.192Z,1.00
2019-04-03T10:19:38.967Z,3.00
2019-04-03T10:20:44.930Z,1.00
2019-04-03T10:21:51.739Z,1.00
2019-04-03T10:22:56.259Z,1.00
2019-04-03T10:24:00.379Z,1.00
2019-04-03T10:25:05.447Z,3.00
2019-04-03T10:26:12.429Z,1.00
2019-04-03T10:27:15.547Z,1.00
2019-04-03T10:28:18.959Z,1.00
2019-04-03T10:29:24.535Z,1.00
2019-04-03T10:42:38.086Z,1.00
2019-04-03T10:43:40.684Z,3.00
2019-04-03T10:44:50.193Z,1.00
2019-04-03T10:45:53.010Z,3.00
2019-04-03T10:46:58.880Z,1.00
2019-04-03T10:48:03.336Z,1.00
2019-04-03T10:49:06.347Z,7.00
2019-04-03T10:50:12.012Z,3.00
2019-04-03T10:51:14.715Z,3.00
2019-04-03T10:52:20.574Z,1.50
2019-04-03T10:53:29.790Z,2.50
2019-04-03T10:54:32.860Z,1.00
2019-04-03T10:55:35.734Z,2.50
2019-04-03T10:56:38.790Z,1.50
2019-04-03T10:57:44.117Z,3.00
2019-04-03T10:58:49.720Z,2.50
2019-04-03T10:59:54.974Z,1.00
2019-04-03T11:00:59.067Z,1.00
2019-04-03T11:02:03.516Z,1.00
2019-04-03T11:03:06.311Z,1.00
2019-04-03T11:04:12.204Z,1.00
2019-04-03T11:05:15.309Z,3.00
2019-04-03T11:06:24.143Z,3.00
2019-04-03T11:07:27.830Z,3.00
2019-04-03T11:08:30.661Z,2.50
2019-04-03T11:09:33.643Z,3.00
2019-04-03T11:10:36.723Z,2.00
2019-04-03T11:11:39.487Z,1.00
2019-04-03T11:12:43.303Z,3.50
2019-04-03T11:13:46.170Z,1.00
2019-04-03T11:14:49.432Z,3.00
2019-04-03T11:15:52.498Z,1.00
2019-04-03T11:16:55.346Z,1.00
2019-04-03T11:17:58.312Z,3.00
2019-04-03T11:19:05.039Z,1.00
2019-04-03T11:20:13.299Z,2.50
2019-04-03T11:21:16.085Z,1.00
2019-04-03T11:22:21.213Z,2.00
2019-04-03T11:23:38.401Z,1.00
2019-04-03T11:24:30.638Z,3.00
2019-04-03T11:25:33.321Z,1.50
2019-04-03T11:26:36.205Z,3.00
2019-04-03T11:28:51.897Z,3.00
2019-04-03T11:29:58.184Z,1.00
2019-04-03T11:30:55.515Z,3.00
2019-04-03T11:31:01.917Z,1.00
2019-04-03T11:32:09.918Z,3.00
2019-04-03T11:33:14.832Z,1.00
2019-04-03T11:34:19.940Z,1.00
2019-04-03T11:35:24.126Z,1.00
2019-04-03T11:36:31.819Z,2.00
2019-04-03T11:37:35.124Z,1.50
2019-04-03T11:38:39.207Z,3.00
2019-04-03T11:39:44.073Z,3.00
2019-04-03T11:40:47.780Z,3.00
2019-04-03T11:41:54.463Z,3.00
2019-04-03T11:42:56.123Z,1.50
2019-04-03T11:43:59.445Z,1.00
2019-04-03T11:45:04.356Z,3.00
2019-04-03T11:46:07.359Z,1.00
2019-04-03T11:47:12.352Z,7.00
2019-04-03T11:48:17.300Z,9.50
2019-04-03T11:49:20.784Z,7.00
2019-04-03T11:50:25.358Z,8.50
2019-04-03T11:51:29.630Z,9.25
2019-04-03T11:52:33.109Z,10.00
2019-04-03T11:53:38.048Z,11.50
2019-04-03T11:54:41.624Z,5.00
2019-04-03T11:55:44.495Z,7.00
2019-04-03T11:56:48.006Z,7.25
2019-04-03T11:57:51.427Z,6.50
2019-04-03T11:58:59.653Z,5.00
2019-04-03T12:00:09.743Z,10.00
2019-04-03T12:01:16.800Z,16.75
2019-04-03T12:02:20.628Z,13.50
2019-04-03T12:03:23.713Z,10.50
2019-04-03T12:04:26.866Z,5.50
2019-04-03T12:05:30.459Z,5.00
2019-04-03T12:06:41.141Z,4.00
2019-04-03T12:07:44.499Z,3.00
2019-04-03T12:08:48.160Z,6.75
2019-04-03T12:09:52.428Z,5.00
2019-04-03T12:10:55.250Z,6.00
2019-04-03T12:11:58.023Z,6.75
2019-04-03T12:13:03.602Z,5.00
2019-04-03T12:14:15.012Z,7.00
2019-04-03T12:15:21.957Z,8.25
2019-04-03T12:16:26.167Z,1.00
2019-04-03T12:17:31.046Z,1.00
2019-04-03T12:18:41.191Z,1.00
2019-04-03T12:19:46.673Z,1.00
2019-04-03T12:20:50.480Z,3.50
2019-04-03T12:22:02.414Z,1.00
2019-04-03T12:23:08.406Z,4.00
2019-04-03T12:24:13.984Z,1.00
2019-04-03T12:25:16.753Z,1.00
2019-04-03T12:26:23.366Z,3.00
2019-04-03T12:27:29.529Z,3.00
2019-04-03T12:28:36.259Z,1.00
2019-04-03T12:29:41.080Z,3.00
2019-04-03T12:30:47.103Z,3.00
2019-04-03T12:31:50.239Z,2.50
2019-04-03T12:33:00.421Z,3.50
2019-04-03T12:34:06.429Z,1.00
2019-04-03T12:35:09.820Z,3.50
2019-04-03T12:36:14.342Z,2.50
2019-04-03T12:37:18.682Z,2.00
2019-04-03T12:38:22.477Z,1.50
2019-04-03T12:39:29.703Z,1.00
2019-04-03T12:40:34.142Z,3.00
2019-04-03T12:41:38.029Z,3.00
2019-04-03T12:42:45.775Z,1.00
2019-04-03T12:43:49.985Z,1.00
2019-04-03T12:44:55.349Z,1.00
2019-04-03T12:46:02.260Z,1.00
2019-04-03T12:47:05.637Z,1.00
2019-04-03T12:48:08.898Z,1.00
2019-04-03T12:49:12.785Z,1.00
2019-04-03T12:50:22.079Z,1.00
2019-04-03T12:51:24.869Z,2.50
2019-04-03T12:52:34.852Z,1.50
2019-04-03T12:53:37.275Z,1.00
2019-04-03T12:54:40.127Z,1.00
2019-04-03T12:55:43.163Z,1.00
2019-04-03T12:56:50.923Z,1.00
2019-04-03T12:57:58.462Z,3.00
2019-04-03T12:59:01.857Z,2.00
2019-04-03T13:00:05.419Z,1.00
2019-04-03T13:01:11.572Z,3.00
2019-04-03T13:02:19.078Z,1.00
2019-04-03T13:03:24.213Z,3.00
2019-04-03T13:04:31.216Z,1.00
2019-04-03T13:05:39.873Z,1.00
2019-04-03T13:06:42.692Z,1.50
2019-04-03T13:07:47.204Z,1.00
2019-04-03T13:08:50.595Z,1.00
2019-04-03T13:09:53.591Z,3.00
2019-04-03T13:10:58.144Z,1.00
2019-04-03T13:12:03.971Z,3.00
2019-04-03T13:13:06.799Z,1.00
2019-04-03T13:14:13.516Z,3.50
2019-04-03T13:15:13.924Z,1.00
2019-04-03T13:16:17.031Z,3.00
2019-04-03T13:17:21.147Z,2.00
2019-04-03T13:18:24.371Z,1.00
2019-04-03T13:19:27.095Z,1.00
2019-04-03T13:20:30.438Z,3.00
2019-04-03T13:21:33.287Z,3.00
2019-04-03T13:22:36.550Z,3.00
2019-04-03T13:23:46.163Z,3.00
2019-04-03T13:24:49.692Z,3.00
2019-04-03T13:25:53.173Z,3.00
2019-04-03T13:26:58.021Z,1.00
2019-04-03T13:28:03.923Z,2.00
2019-04-03T13:29:08.588Z,3.00
2019-04-03T13:30:13.745Z,7.25
2019-04-03T13:31:19.789Z,5.00
2019-04-03T13:32:26.412Z,4.50
2019-04-03T13:33:32.472Z,3.00
2019-04-03T13:34:38.112Z,5.00
2019-04-03T13:35:44.896Z,5.00
2019-04-03T13:36:51.368Z,4.00
2019-04-03T13:37:56.144Z,1.00
2019-04-03T13:39:02.206Z,3.00
2019-04-03T13:40:07.489Z,3.00
2019-04-03T13:41:11.285Z,4.50
2019-04-03T13:42:17.441Z,1.50
2019-04-03T13:43:21.588Z,5.00
2019-04-03T13:44:26.963Z,5.75
2019-04-03T13:45:31.033Z,5.00
2019-04-03T13:46:36.405Z,2.00
2019-04-03T13:47:41.766Z,4.25
2019-04-03T13:48:44.981Z,3.00
2019-04-03T13:49:50.108Z,3.00
2019-04-03T13:50:56.491Z,1.00
2019-04-03T13:52:07.720Z,3.00
2019-04-03T13:53:11.943Z,3.00
2019-04-03T13:54:15.284Z,3.00
2019-04-03T13:55:18.751Z,4.00
2019-04-03T13:56:24.082Z,3.00
2019-04-03T13:57:28.340Z,2.50
2019-04-03T13:58:34.217Z,3.50
2019-04-03T13:59:39.748Z,5.00
2019-04-03T14:00:42.565Z,3.00
2019-04-03T14:01:53.056Z,3.00
2019-04-03T14:02:58.327Z,1.50
2019-04-03T14:04:04.217Z,3.00
2019-04-03T14:05:07.032Z,3.00
2019-04-03T14:06:09.855Z,3.00
2019-04-03T14:07:13.059Z,3.00
2019-04-03T14:08:18.601Z,1.50
2019-04-03T14:09:21.724Z,6.00
2019-04-03T14:10:27.400Z,3.00
2019-04-03T14:11:31.437Z,2.00
2019-04-03T14:12:39.219Z,3.00
2019-04-03T14:13:43.671Z,3.00
2019-04-03T14:14:49.065Z,2.00
2019-04-03T14:15:58.316Z,1.00
2019-04-03T14:17:05.471Z,3.00
2019-04-03T14:18:10.884Z,5.00
2019-04-03T14:19:15.421Z,3.00
2019-04-03T14:20:18.169Z,2.00
2019-04-03T14:21:21.278Z,2.00
2019-04-03T14:22:24.400Z,4.50
2019-04-03T14:23:27.516Z,3.00
2019-04-03T14:24:39.295Z,5.00
2019-04-03T14:25:39.195Z,3.50
2019-04-03T14:26:44.407Z,3.50
2019-04-03T14:27:46.624Z,3.00
2019-04-03T14:29:07.986Z,3.00
2019-04-03T14:30:12.153Z,4.00
2019-04-03T14:31:17.505Z,3.00
2019-04-03T14:32:44.537Z,3.00
2019-04-03T14:33:49.929Z,5.00
2019-04-03T14:35:04.812Z,7.00
2019-04-03T14:36:03.069Z,6.00
2019-04-03T14:37:09.930Z,4.00
2019-04-03T14:38:13.013Z,5.50
2019-04-03T14:39:16.268Z,5.50
2019-04-03T14:40:22.618Z,6.75
2019-04-03T14:41:30.891Z,5.00
2019-04-03T14:42:33.478Z,3.00
2019-04-03T14:43:36.457Z,5.00
2019-04-03T14:44:45.587Z,5.00
2019-04-03T14:45:51.712Z,5.00
2019-04-03T14:46:57.782Z,6.00
2019-04-03T14:48:05.180Z,4.50
2019-04-03T14:49:10.033Z,3.00
2019-04-03T14:50:12.905Z,3.00
2019-04-03T14:51:16.292Z,5.00
2019-04-03T14:52:19.052Z,3.00
2019-04-03T14:53:22.583Z,5.50
2019-04-03T14:54:25.791Z,7.25
2019-04-03T14:55:45.817Z,8.00
2019-04-03T14:56:39.175Z,8.00
2019-04-03T14:57:42.302Z,8.00
2019-04-03T14:58:45.511Z,6.75
2019-04-03T14:59:51.809Z,7.50
2019-04-03T15:00:56.808Z,3.50
2019-04-03T15:02:00.779Z,3.50
2019-04-03T15:03:04.747Z,3.00
2019-04-03T15:04:08.678Z,3.00
2019-04-03T15:05:13.881Z,4.00
2019-04-03T15:06:16.395Z,3.00
2019-04-03T15:07:19.173Z,3.50
2019-04-03T15:08:23.734Z,3.00